createdAt,value
2022-07-29T00:00:33.569Z,9.203726
2022-07-29T00:01:33.551Z,9.203745
2022-07-29T00:02:33.613Z,9.203739
2022-07-29T00:03:33.600Z,9.203756
2022-07-29T00:04:33.591Z,9.203716
2022-07-29T00:05:33.669Z,9.203727
2022-07-29T00:06:33.545Z,9.203694
2022-07-29T00:07:33.583Z,9.203732
2022-07-29T00:08:33.518Z,9.203617
2022-07-29T00:09:33.502Z,9.203721
2022-07-29T00:10:34.524Z,9.203679
2022-07-29T00:11:33.518Z,9.203687
2022-07-29T00:12:33.478Z,9.203678
2022-07-29T00:13:33.470Z,9.203730
2022-07-29T00:14:33.514Z,9.203701
2022-07-29T00:15:33.485Z,9.203753
2022-07-29T00:16:34.614Z,9.203790
2022-07-29T00:17:33.496Z,9.203752
2022-07-29T00:18:33.488Z,9.203749
2022-07-29T00:19:33.435Z,9.203737
2022-07-29T00:20:33.425Z,9.203756
2022-07-29T00:21:33.438Z,9.203730
2022-07-29T00:22:33.427Z,9.203817
2022-07-29T00:23:36.723Z,9.203694
2022-07-29T00:24:34.403Z,9.203779
2022-07-29T00:25:33.933Z,9.203822
2022-07-29T00:26:33.472Z,9.203691
2022-07-29T00:27:33.383Z,9.203902
2022-07-29T00:28:33.398Z,9.203766
2022-07-29T00:29:34.653Z,9.203859
2022-07-29T00:30:34.381Z,9.203720
2022-07-29T00:31:33.458Z,9.203856
2022-07-29T00:32:33.424Z,9.203729
2022-07-29T00:33:33.350Z,9.203761
2022-07-29T00:34:33.386Z,9.203795
2022-07-29T00:35:33.329Z,9.203820
2022-07-29T00:36:33.388Z,9.203835
2022-07-29T00:37:33.317Z,9.203831
2022-07-29T00:38:33.371Z,9.203877
2022-07-29T00:39:33.316Z,9.203995
2022-07-29T00:40:34.310Z,9.203957
2022-07-29T00:41:33.329Z,9.203884
2022-07-29T00:42:33.308Z,9.203785
2022-07-29T00:43:33.310Z,9.203834
2022-07-29T00:44:33.306Z,9.203755
2022-07-29T00:45:33.267Z,9.204299
2022-07-29T00:46:33.304Z,9.204160
2022-07-29T00:47:33.265Z,9.204068
2022-07-29T00:48:33.261Z,9.204076
2022-07-29T00:49:33.272Z,9.204076
2022-07-29T00:50:33.260Z,9.203866
2022-07-29T00:51:33.238Z,9.203897
2022-07-29T00:52:33.211Z,9.203996
2022-07-29T00:53:33.282Z,9.203951
2022-07-29T00:54:33.217Z,9.204115
2022-07-29T00:55:33.231Z,9.204284
2022-07-29T00:56:33.209Z,9.204227
2022-07-29T00:57:33.202Z,9.204300
2022-07-29T00:58:33.165Z,9.204394
2022-07-29T00:59:35.228Z,9.204308
2022-07-29T01:00:33.296Z,9.204227
2022-07-29T01:01:33.497Z,9.204103
2022-07-29T01:02:33.211Z,9.204090
2022-07-29T01:03:33.190Z,9.204398
2022-07-29T01:04:33.196Z,9.204157
2022-07-29T01:05:51.559Z,9.203791
2022-07-29T01:06:34.126Z,9.203790
2022-07-29T01:07:33.132Z,9.203785
2022-07-29T01:08:33.173Z,9.203888
2022-07-29T01:09:42.049Z,9.203699
2022-07-29T01:10:34.153Z,9.203802
2022-07-29T01:11:33.150Z,9.203794
2022-07-29T01:12:33.135Z,9.203876
2022-07-29T01:13:33.092Z,9.203724
2022-07-29T01:14:33.088Z,9.203821
2022-07-29T01:15:33.057Z,9.203776
2022-07-29T01:16:33.235Z,9.203691
2022-07-29T01:17:33.072Z,9.203764
2022-07-29T01:18:33.036Z,9.203850
2022-07-29T01:19:33.047Z,9.203738
2022-07-29T01:20:33.016Z,9.203938
2022-07-29T01:21:33.063Z,9.203787
2022-07-29T01:22:33.018Z,9.203771
2022-07-29T01:23:33.045Z,9.203635
2022-07-29T01:24:33.039Z,9.203758
2022-07-29T01:25:33.010Z,9.203761
2022-07-29T01:26:33.020Z,9.203691
2022-07-29T01:27:33.093Z,9.203623
2022-07-29T01:28:33.407Z,9.203618
2022-07-29T01:29:38.981Z,9.203584
2022-07-29T01:30:34.034Z,9.203662
2022-07-29T01:31:33.031Z,9.203680
2022-07-29T01:32:33.028Z,9.203690
2022-07-29T01:33:32.964Z,9.203604
2022-07-29T01:34:32.963Z,9.203632
2022-07-29T01:35:33.017Z,9.203612
2022-07-29T01:36:32.940Z,9.203603
2022-07-29T01:37:32.918Z,9.203595
2022-07-29T01:38:32.890Z,9.203721
2022-07-29T01:39:33.366Z,9.203757
2022-07-29T01:40:32.919Z,9.203720
2022-07-29T01:41:32.894Z,9.203601
2022-07-29T01:42:32.895Z,9.203582
2022-07-29T01:43:32.894Z,9.203578
2022-07-29T01:44:32.914Z,9.203648
2022-07-29T01:45:32.894Z,9.203702
2022-07-29T01:46:32.995Z,9.203651
2022-07-29T01:47:32.872Z,9.203697
2022-07-29T01:48:32.858Z,9.203703
2022-07-29T01:49:32.870Z,9.203693
2022-07-29T01:50:33.868Z,9.203591
2022-07-29T01:51:32.857Z,9.203650
2022-07-29T01:52:32.821Z,9.203692
2022-07-29T01:53:34.770Z,9.203646
2022-07-29T01:54:33.806Z,9.203653
2022-07-29T01:55:32.813Z,9.203685
2022-07-29T01:56:32.788Z,9.203629
2022-07-29T01:57:32.819Z,9.203683
2022-07-29T01:58:32.884Z,9.203629
2022-07-29T01:59:32.768Z,9.203688
2022-07-29T02:00:32.819Z,9.203785
2022-07-29T02:01:32.828Z,9.203731
2022-07-29T02:02:32.779Z,9.203744
2022-07-29T02:03:32.762Z,9.203733
2022-07-29T02:04:32.751Z,9.203711
2022-07-29T02:05:32.770Z,9.203682
2022-07-29T02:06:32.749Z,9.203576
2022-07-29T02:07:32.758Z,9.203683
2022-07-29T02:08:32.730Z,9.203643
2022-07-29T02:09:32.709Z,9.203713
2022-07-29T02:10:32.742Z,9.203704
2022-07-29T02:11:32.720Z,9.203667
2022-07-29T02:12:32.743Z,9.203710
2022-07-29T02:13:32.722Z,9.203702
2022-07-29T02:14:32.748Z,9.203731
2022-07-29T02:15:32.757Z,9.203607
2022-07-29T02:16:32.750Z,9.203786
2022-07-29T02:17:32.682Z,9.203696
2022-07-29T02:18:33.676Z,9.203663
2022-07-29T02:19:32.661Z,9.203583
2022-07-29T02:20:32.653Z,9.203641
2022-07-29T02:21:32.632Z,9.203637
2022-07-29T02:22:32.635Z,9.203680
2022-07-29T02:23:32.651Z,9.203555
2022-07-29T02:24:33.627Z,9.203544
2022-07-29T02:25:38.117Z,9.203590
2022-07-29T02:26:33.662Z,9.203652
2022-07-29T02:27:32.596Z,9.203580
2022-07-29T02:28:32.572Z,9.203587
2022-07-29T02:29:32.594Z,9.203663
2022-07-29T02:30:32.604Z,9.203617
2022-07-29T02:31:32.700Z,9.203659
2022-07-29T02:32:32.581Z,9.203538
2022-07-29T02:33:32.582Z,9.203548
2022-07-29T02:34:32.624Z,9.203706
2022-07-29T02:35:34.579Z,9.203596
2022-07-29T02:36:32.574Z,9.203711
2022-07-29T02:37:32.541Z,9.203732
2022-07-29T02:38:32.571Z,9.203723
2022-07-29T02:39:32.616Z,9.203681
2022-07-29T02:40:32.570Z,9.203854
2022-07-29T02:41:32.543Z,9.203883
2022-07-29T02:42:32.535Z,9.203770
2022-07-29T02:43:32.507Z,9.203734
2022-07-29T02:44:34.715Z,9.203978
2022-07-29T02:45:33.508Z,9.203867
2022-07-29T02:46:32.534Z,9.203703
2022-07-29T02:47:42.081Z,9.203651
2022-07-29T02:48:33.472Z,9.203657
2022-07-29T02:49:32.492Z,9.203658
2022-07-29T02:50:32.487Z,9.203626
2022-07-29T02:51:43.794Z,9.203736
2022-07-29T02:52:33.487Z,9.203618
2022-07-29T02:53:32.460Z,9.203666
2022-07-29T02:54:32.480Z,9.203625
2022-07-29T02:55:32.421Z,9.203748
2022-07-29T02:56:32.405Z,9.203606
2022-07-29T02:57:32.433Z,9.203609
2022-07-29T02:58:32.434Z,9.203668
2022-07-29T02:59:32.395Z,9.203707
2022-07-29T03:00:32.453Z,9.203702
2022-07-29T03:01:32.426Z,9.203705
2022-07-29T03:02:32.400Z,9.203598
2022-07-29T03:03:32.371Z,9.203585
2022-07-29T03:04:32.449Z,9.203626
2022-07-29T03:05:32.386Z,9.203690
2022-07-29T03:06:38.410Z,9.203683
2022-07-29T03:07:33.356Z,9.203723
2022-07-29T03:08:32.392Z,9.203695
2022-07-29T03:09:32.360Z,9.203720
2022-07-29T03:10:32.334Z,9.203749
2022-07-29T03:11:46.145Z,9.203757
2022-07-29T03:12:33.302Z,9.203785
2022-07-29T03:13:32.342Z,9.203707
2022-07-29T03:14:32.317Z,9.203719
2022-07-29T03:15:32.322Z,9.203758
2022-07-29T03:16:32.368Z,9.203753
2022-07-29T03:17:32.322Z,9.203661
2022-07-29T03:18:32.289Z,9.203724
2022-07-29T03:19:32.266Z,9.203710
2022-07-29T03:20:32.269Z,9.203778
2022-07-29T03:21:32.240Z,9.203652
2022-07-29T03:22:32.286Z,9.203690
2022-07-29T03:23:35.200Z,9.203772
2022-07-29T03:24:32.253Z,9.203733
2022-07-29T03:25:32.240Z,9.203679
2022-07-29T03:26:32.241Z,9.203626
2022-07-29T03:27:32.230Z,9.203761
2022-07-29T03:28:32.295Z,9.203441
2022-07-29T03:29:34.070Z,9.203561
2022-07-29T03:30:32.299Z,9.203625
2022-07-29T03:31:33.353Z,9.203534
2022-07-29T03:32:32.187Z,9.203546
2022-07-29T03:33:32.241Z,9.203779
2022-07-29T03:34:32.250Z,9.203730
2022-07-29T03:35:32.201Z,9.203737
2022-07-29T03:36:32.167Z,9.203580
2022-07-29T03:37:32.176Z,9.203713
2022-07-29T03:38:32.196Z,9.203768
2022-07-29T03:39:32.186Z,9.203686
2022-07-29T03:40:32.163Z,9.203708
2022-07-29T03:41:32.176Z,9.203799
2022-07-29T03:42:34.299Z,9.203849
2022-07-29T03:43:33.128Z,9.203649
2022-07-29T03:44:32.142Z,9.203600
2022-07-29T03:45:32.114Z,9.203582
2022-07-29T03:46:32.340Z,9.203613
2022-07-29T03:47:49.787Z,9.203785
2022-07-29T03:48:33.137Z,9.203676
2022-07-29T03:49:32.138Z,9.203641
2022-07-29T03:50:32.089Z,9.203280
2022-07-29T03:51:33.714Z,9.203457
2022-07-29T03:52:32.109Z,9.203603
2022-07-29T03:53:32.073Z,9.203551
2022-07-29T03:54:32.036Z,9.203702
2022-07-29T03:55:32.067Z,9.203783
2022-07-29T03:56:32.075Z,9.204039
2022-07-29T03:57:32.050Z,9.203941
2022-07-29T03:58:32.012Z,9.203825
2022-07-29T03:59:32.019Z,9.203814
2022-07-29T04:00:32.031Z,9.203696
2022-07-29T04:01:32.109Z,9.203867
2022-07-29T04:02:32.153Z,9.203757
2022-07-29T04:03:32.105Z,9.203921
2022-07-29T04:04:32.007Z,9.203891
2022-07-29T04:05:32.019Z,9.203697
2022-07-29T04:06:32.011Z,9.203720
2022-07-29T04:07:32.017Z,9.203654
2022-07-29T04:08:31.976Z,9.203652
2022-07-29T04:09:32.034Z,9.203650
2022-07-29T04:10:32.316Z,9.203447
2022-07-29T04:11:32.051Z,9.203672
2022-07-29T04:12:31.945Z,9.203645
2022-07-29T04:13:31.959Z,9.203711
2022-07-29T04:14:32.933Z,9.203677
2022-07-29T04:15:32.081Z,9.203629
2022-07-29T04:16:32.043Z,9.203712
2022-07-29T04:17:31.907Z,9.203695
2022-07-29T04:18:31.932Z,9.203666
2022-07-29T04:19:32.267Z,9.203673
2022-07-29T04:20:31.921Z,9.203661
2022-07-29T04:21:31.940Z,9.203661
2022-07-29T04:22:31.877Z,9.203577
2022-07-29T04:23:31.915Z,9.203610
2022-07-29T04:24:31.876Z,9.203631
2022-07-29T04:25:31.893Z,9.203700
2022-07-29T04:26:31.881Z,9.203602
2022-07-29T04:27:31.851Z,9.203716
2022-07-29T04:28:31.935Z,9.203711
2022-07-29T04:29:31.822Z,9.203748
2022-07-29T04:30:31.829Z,9.203701
2022-07-29T04:31:31.876Z,9.203711
2022-07-29T04:32:31.852Z,9.203569
2022-07-29T04:33:32.878Z,9.203765
2022-07-29T04:34:31.797Z,9.203663
2022-07-29T04:35:38.391Z,9.203730
2022-07-29T04:36:32.796Z,9.203768
2022-07-29T04:37:31.773Z,9.203788
2022-07-29T04:38:31.858Z,9.203663
2022-07-29T04:39:31.764Z,9.203709
2022-07-29T04:40:31.790Z,9.203681
2022-07-29T04:41:33.382Z,9.203793
2022-07-29T04:42:31.738Z,9.203742
2022-07-29T04:43:36.651Z,9.203790
2022-07-29T04:44:32.756Z,9.203698
2022-07-29T04:45:31.736Z,9.203718
2022-07-29T04:46:31.741Z,9.203563
2022-07-29T04:47:31.728Z,9.203561
2022-07-29T04:48:31.712Z,9.203720
2022-07-29T04:49:31.796Z,9.203776
2022-07-29T04:50:31.770Z,9.203768
2022-07-29T04:51:31.784Z,9.203792
2022-07-29T04:52:31.691Z,9.203765
2022-07-29T04:53:31.663Z,9.203710
2022-07-29T04:54:31.669Z,9.203719
2022-07-29T04:55:31.656Z,9.203706
2022-07-29T04:56:31.700Z,9.203773
2022-07-29T04:57:31.665Z,9.203787
2022-07-29T04:58:31.686Z,9.203820
2022-07-29T04:59:31.642Z,9.203718
2022-07-29T05:00:33.263Z,9.203747
2022-07-29T05:01:31.725Z,9.203940
2022-07-29T05:02:31.646Z,9.203980
2022-07-29T05:03:31.613Z,9.203694
2022-07-29T05:04:31.628Z,9.203714
2022-07-29T05:05:31.597Z,9.203584
2022-07-29T05:06:31.641Z,9.203692
2022-07-29T05:07:31.658Z,9.203720
2022-07-29T05:08:31.581Z,9.203745
2022-07-29T05:09:31.595Z,9.203642
2022-07-29T05:10:31.592Z,9.203535
2022-07-29T05:11:31.551Z,9.203345
2022-07-29T05:12:31.573Z,9.203670
2022-07-29T05:13:45.801Z,9.203772
2022-07-29T05:14:32.595Z,9.203768
2022-07-29T05:15:31.603Z,9.203650
2022-07-29T05:16:31.533Z,9.203699
2022-07-29T05:17:31.549Z,9.203675
2022-07-29T05:18:31.545Z,9.203736
2022-07-29T05:19:31.509Z,9.203754
2022-07-29T05:20:31.511Z,9.203842
2022-07-29T05:21:31.519Z,9.203768
2022-07-29T05:22:31.551Z,9.203766
2022-07-29T05:23:31.506Z,9.203918
2022-07-29T05:24:31.505Z,9.203818
2022-07-29T05:25:43.069Z,9.203634
2022-07-29T05:26:32.473Z,9.203841
2022-07-29T05:27:31.456Z,9.203739
2022-07-29T05:28:31.496Z,9.203931
2022-07-29T05:29:44.268Z,9.203923
2022-07-29T05:30:32.575Z,9.203937
2022-07-29T05:31:31.499Z,9.203821
2022-07-29T05:32:31.427Z,9.203699
2022-07-29T05:33:35.488Z,9.203814
2022-07-29T05:34:32.438Z,9.203573
2022-07-29T05:35:31.534Z,9.203722
2022-07-29T05:36:31.476Z,9.203786
2022-07-29T05:37:31.392Z,9.203834
2022-07-29T05:38:31.384Z,9.203691
2022-07-29T05:39:47.125Z,9.203668
2022-07-29T05:40:32.412Z,9.203918
2022-07-29T05:41:32.292Z,9.203728
2022-07-29T05:42:31.396Z,9.203635
2022-07-29T05:43:31.374Z,9.203531
2022-07-29T05:44:31.389Z,9.203568
2022-07-29T05:45:31.425Z,9.203803
2022-07-29T05:46:31.537Z,9.203850
2022-07-29T05:47:31.347Z,9.203942
2022-07-29T05:48:31.411Z,9.203783
2022-07-29T05:49:31.371Z,9.203700
2022-07-29T05:50:31.327Z,9.203729
2022-07-29T05:51:31.383Z,9.203759
2022-07-29T05:52:31.326Z,9.203959
2022-07-29T05:53:31.334Z,9.203897
2022-07-29T05:54:31.338Z,9.203811
2022-07-29T05:55:31.425Z,9.203796
2022-07-29T05:56:31.328Z,9.203832
2022-07-29T05:57:31.425Z,9.203581
2022-07-29T05:58:31.277Z,9.203651
2022-07-29T05:59:31.282Z,9.203716
2022-07-29T06:00:31.254Z,9.203748
2022-07-29T06:01:31.332Z,9.203747
2022-07-29T06:02:31.249Z,9.203776
2022-07-29T06:03:31.333Z,9.203721
2022-07-29T06:04:31.337Z,9.203686
2022-07-29T06:05:31.220Z,9.203643
2022-07-29T06:06:32.376Z,9.203768
2022-07-29T06:07:31.322Z,9.203753
2022-07-29T06:08:31.246Z,9.203711
2022-07-29T06:09:31.293Z,9.203932
2022-07-29T06:10:31.254Z,9.203887
2022-07-29T06:11:31.303Z,9.203662
2022-07-29T06:12:31.338Z,9.203585
2022-07-29T06:13:31.175Z,9.203706
2022-07-29T06:14:31.157Z,9.203688
2022-07-29T06:15:31.155Z,9.203734
2022-07-29T06:16:31.189Z,9.203650
2022-07-29T06:17:31.168Z,9.203730
2022-07-29T06:18:31.167Z,9.203712
2022-07-29T06:19:31.130Z,9.203818
2022-07-29T06:20:31.608Z,9.203768
2022-07-29T06:21:31.129Z,9.203619
2022-07-29T06:22:31.114Z,9.203704
2022-07-29T06:23:31.168Z,9.203623
2022-07-29T06:24:31.124Z,9.203825
2022-07-29T06:25:31.082Z,9.203960
2022-07-29T06:26:33.330Z,9.203562
2022-07-29T06:27:31.097Z,9.203596
2022-07-29T06:28:31.084Z,9.203643
2022-07-29T06:29:31.105Z,9.203576
2022-07-29T06:30:31.116Z,9.203625
2022-07-29T06:31:31.045Z,9.203708
2022-07-29T06:32:31.072Z,9.203765
2022-07-29T06:33:31.036Z,9.203663
2022-07-29T06:34:31.164Z,9.203593
2022-07-29T06:35:41.190Z,9.203710
2022-07-29T06:36:33.025Z,9.203729
2022-07-29T06:37:31.035Z,9.203679
2022-07-29T06:38:34.367Z,9.203785
2022-07-29T06:39:33.009Z,9.203789
2022-07-29T06:40:31.018Z,9.203857
2022-07-29T06:41:31.043Z,9.203725
2022-07-29T06:42:30.983Z,9.203729
2022-07-29T06:43:31.993Z,9.203586
2022-07-29T06:44:30.964Z,9.203586
2022-07-29T06:45:30.963Z,9.203659
2022-07-29T06:46:31.077Z,9.203749
2022-07-29T06:47:30.988Z,9.203856
2022-07-29T06:48:30.971Z,9.203768
2022-07-29T06:49:30.954Z,9.203739
2022-07-29T06:50:30.952Z,9.203610
2022-07-29T06:51:30.949Z,9.203770
2022-07-29T06:52:30.952Z,9.203604
2022-07-29T06:53:30.900Z,9.203675
2022-07-29T06:54:30.974Z,9.203497
2022-07-29T06:55:30.884Z,9.203607
2022-07-29T06:56:30.897Z,9.203661
2022-07-29T06:57:30.959Z,9.203600
2022-07-29T06:58:30.896Z,9.203588
2022-07-29T06:59:35.234Z,9.203667
2022-07-29T07:00:31.888Z,9.203600
2022-07-29T07:01:31.585Z,9.203754
2022-07-29T07:02:31.145Z,9.203744
2022-07-29T07:03:30.844Z,9.203763
2022-07-29T07:04:30.846Z,9.203868
2022-07-29T07:05:30.844Z,9.203822
2022-07-29T07:06:30.874Z,9.203776
2022-07-29T07:07:30.814Z,9.203835
2022-07-29T07:08:30.834Z,9.203835
2022-07-29T07:09:39.841Z,9.203856
2022-07-29T07:10:31.838Z,9.203816
2022-07-29T07:11:30.804Z,9.203777
2022-07-29T07:12:30.816Z,9.203789
2022-07-29T07:13:30.804Z,9.203946
2022-07-29T07:14:30.790Z,9.203594
2022-07-29T07:15:39.703Z,9.203779
2022-07-29T07:16:32.072Z,9.203913
2022-07-29T07:17:30.853Z,9.204060
2022-07-29T07:18:30.800Z,9.203937
2022-07-29T07:19:30.747Z,9.203988
2022-07-29T07:20:30.779Z,9.203893
2022-07-29T07:21:31.099Z,9.204017
2022-07-29T07:22:33.422Z,9.203997
2022-07-29T07:23:30.960Z,9.203820
2022-07-29T07:24:30.761Z,9.203713
2022-07-29T07:25:30.932Z,9.203889
2022-07-29T07:26:30.741Z,9.203691
2022-07-29T07:27:30.807Z,9.203853
2022-07-29T07:28:30.753Z,9.203791
2022-07-29T07:29:30.700Z,9.203596
2022-07-29T07:30:30.750Z,9.203471
2022-07-29T07:31:30.762Z,9.203717
2022-07-29T07:32:30.697Z,9.203720
2022-07-29T07:33:30.684Z,9.203738
2022-07-29T07:34:30.687Z,9.203687
2022-07-29T07:35:30.809Z,9.203771
2022-07-29T07:36:30.688Z,9.203617
2022-07-29T07:37:30.634Z,9.203741
2022-07-29T07:38:30.687Z,9.203779
2022-07-29T07:39:30.877Z,9.203658
2022-07-29T07:40:30.637Z,9.203617
2022-07-29T07:41:32.341Z,9.203689
2022-07-29T07:42:30.621Z,9.203720
2022-07-29T07:43:31.527Z,9.203724
2022-07-29T07:44:30.664Z,9.203733
2022-07-29T07:45:30.665Z,9.203807
2022-07-29T07:46:30.601Z,9.203774
2022-07-29T07:47:30.586Z,9.203782
2022-07-29T07:48:30.582Z,9.203730
2022-07-29T07:49:30.784Z,9.203753
2022-07-29T07:50:30.576Z,9.203867
2022-07-29T07:51:30.589Z,9.203932
2022-07-29T07:52:30.562Z,9.203961
2022-07-29T07:53:30.570Z,9.203992
2022-07-29T07:54:30.554Z,9.203864
2022-07-29T07:55:42.442Z,9.203878
2022-07-29T07:56:35.147Z,9.203864
2022-07-29T07:57:31.529Z,9.203933
2022-07-29T07:58:30.511Z,9.203902
2022-07-29T07:59:30.518Z,9.203655
2022-07-29T08:00:31.526Z,9.203693
2022-07-29T08:01:30.527Z,9.203792
2022-07-29T08:02:31.506Z,9.203730
2022-07-29T08:03:30.522Z,9.203628
2022-07-29T08:04:30.456Z,9.203736
2022-07-29T08:05:30.500Z,9.203879
2022-07-29T08:06:30.539Z,9.203876
2022-07-29T08:07:30.461Z,9.203749
2022-07-29T08:08:30.444Z,9.203661
2022-07-29T08:09:30.759Z,9.203651
2022-07-29T08:10:30.436Z,9.203752
2022-07-29T08:11:30.530Z,9.203836
2022-07-29T08:12:30.427Z,9.203679
2022-07-29T08:13:30.406Z,9.203676
2022-07-29T08:14:30.442Z,9.203898
2022-07-29T08:15:30.393Z,9.203794
2022-07-29T08:16:30.433Z,9.203745
2022-07-29T08:17:30.514Z,9.203828
2022-07-29T08:18:30.420Z,9.204191
2022-07-29T08:19:30.397Z,9.204098
2022-07-29T08:20:31.070Z,9.204323
2022-07-29T08:21:30.397Z,9.204238
2022-07-29T08:22:30.441Z,9.204124
2022-07-29T08:23:47.177Z,9.204006
2022-07-29T08:24:33.808Z,9.203977
2022-07-29T08:25:30.383Z,9.204115
2022-07-29T08:26:30.378Z,9.204141
2022-07-29T08:27:44.927Z,9.203967
2022-07-29T08:28:32.316Z,9.203976
2022-07-29T08:29:30.344Z,9.203869
2022-07-29T08:30:30.285Z,9.203958
2022-07-29T08:31:30.349Z,9.203618
2022-07-29T08:32:52.477Z,9.203791
2022-07-29T08:33:32.326Z,9.203691
2022-07-29T08:34:30.306Z,9.203749
2022-07-29T08:35:35.065Z,9.203631
2022-07-29T08:36:32.278Z,9.203858
2022-07-29T08:37:30.258Z,9.203912
2022-07-29T08:38:30.259Z,9.203909
2022-07-29T08:39:30.264Z,9.203952
2022-07-29T08:40:31.916Z,9.203960
2022-07-29T08:41:30.251Z,9.203804
2022-07-29T08:42:30.215Z,9.203993
2022-07-29T08:43:30.282Z,9.203903
2022-07-29T08:44:31.187Z,9.203814
2022-07-29T08:45:30.257Z,9.203759
2022-07-29T08:46:30.172Z,9.203684
2022-07-29T08:47:30.232Z,9.203780
2022-07-29T08:48:30.223Z,9.203772
2022-07-29T08:49:31.497Z,9.203748
2022-07-29T08:50:30.215Z,9.203556
2022-07-29T08:51:30.191Z,9.203708
2022-07-29T08:52:30.155Z,9.203675
2022-07-29T08:53:30.193Z,9.203725
2022-07-29T08:54:30.138Z,9.203739
2022-07-29T08:55:30.149Z,9.203747
2022-07-29T08:56:30.194Z,9.203724
2022-07-29T08:57:30.234Z,9.203697
2022-07-29T08:58:30.146Z,9.203732
2022-07-29T08:59:30.095Z,9.203778
2022-07-29T09:00:30.145Z,9.203631
2022-07-29T09:01:36.393Z,9.203665
2022-07-29T09:02:31.103Z,9.203652
2022-07-29T09:03:30.143Z,9.203515
2022-07-29T09:04:30.123Z,9.203703
2022-07-29T09:05:30.169Z,9.203670
2022-07-29T09:06:30.136Z,9.203751
2022-07-29T09:07:34.783Z,9.203744
2022-07-29T09:08:30.113Z,9.203744
2022-07-29T09:09:30.045Z,9.203718
2022-07-29T09:10:30.071Z,9.203677
2022-07-29T09:11:30.060Z,9.203693
2022-07-29T09:12:32.715Z,9.203750
2022-07-29T09:13:31.272Z,9.203728
2022-07-29T09:14:30.994Z,9.203667
2022-07-29T09:15:30.012Z,9.203717
2022-07-29T09:16:51.798Z,9.203787
2022-07-29T09:17:32.048Z,9.203627
2022-07-29T09:18:31.121Z,9.203751
2022-07-29T09:19:29.979Z,9.203741
2022-07-29T09:20:29.977Z,9.203685
2022-07-29T09:21:29.992Z,9.203713
2022-07-29T09:22:29.961Z,9.203699
2022-07-29T09:23:30.004Z,9.203734
2022-07-29T09:24:30.961Z,9.203732
2022-07-29T09:25:29.960Z,9.203763
2022-07-29T09:26:29.956Z,9.203755
2022-07-29T09:27:29.973Z,9.203736
2022-07-29T09:28:30.063Z,9.203790
2022-07-29T09:29:33.310Z,9.203664
2022-07-29T09:30:32.077Z,9.203691
2022-07-29T09:31:29.993Z,9.203631
2022-07-29T09:32:29.890Z,9.203606
2022-07-29T09:33:29.922Z,9.203670
2022-07-29T09:34:29.910Z,9.203843
2022-07-29T09:35:29.903Z,9.203694
2022-07-29T09:36:29.995Z,9.203648
2022-07-29T09:37:29.866Z,9.203811
2022-07-29T09:38:30.066Z,9.203804
2022-07-29T09:39:29.886Z,9.203799
2022-07-29T09:40:29.873Z,9.203712
2022-07-29T09:41:29.969Z,9.203837
2022-07-29T09:42:30.004Z,9.203921
2022-07-29T09:43:29.865Z,9.203700
2022-07-29T09:44:29.878Z,9.203743
2022-07-29T09:45:29.889Z,9.203677
2022-07-29T09:46:29.870Z,9.203627
2022-07-29T09:47:29.828Z,9.203715
2022-07-29T09:48:29.776Z,9.203828
2022-07-29T09:49:29.876Z,9.203657
2022-07-29T09:50:29.793Z,9.203645
2022-07-29T09:51:38.077Z,9.203693
2022-07-29T09:52:31.775Z,9.203561
2022-07-29T09:53:29.750Z,9.203737
2022-07-29T09:54:29.949Z,9.203757
2022-07-29T09:55:29.766Z,9.203775
2022-07-29T09:56:29.803Z,9.203736
2022-07-29T09:57:31.115Z,9.203660
2022-07-29T09:58:30.744Z,9.203634
2022-07-29T09:59:30.683Z,9.203543
2022-07-29T10:00:29.807Z,9.203679
2022-07-29T10:01:29.917Z,9.203726
2022-07-29T10:02:29.749Z,9.203845
2022-07-29T10:03:29.786Z,9.203640
2022-07-29T10:04:29.678Z,9.203568
2022-07-29T10:05:36.803Z,9.203422
2022-07-29T10:06:30.690Z,9.203567
2022-07-29T10:07:29.663Z,9.203575
2022-07-29T10:08:29.764Z,9.203493
2022-07-29T10:09:29.650Z,9.203588
2022-07-29T10:10:29.727Z,9.203465
2022-07-29T10:11:35.409Z,9.203541
2022-07-29T10:12:30.611Z,9.203596
2022-07-29T10:13:29.643Z,9.203692
2022-07-29T10:14:29.672Z,9.203620
2022-07-29T10:15:29.602Z,9.203514
2022-07-29T10:16:29.688Z,9.203652
2022-07-29T10:17:29.582Z,9.203690
2022-07-29T10:18:29.600Z,9.203668
2022-07-29T10:19:29.569Z,9.203373
2022-07-29T10:20:29.590Z,9.203341
2022-07-29T10:21:36.076Z,9.203525
2022-07-29T10:22:51.880Z,9.203848
2022-07-29T10:23:46.134Z,9.203796
2022-07-29T10:24:30.559Z,9.203744
2022-07-29T10:25:29.599Z,9.203897
2022-07-29T10:26:29.513Z,9.203828
2022-07-29T10:27:29.536Z,9.203796
2022-07-29T10:28:29.651Z,9.203366
2022-07-29T10:29:29.497Z,9.203384
2022-07-29T10:30:29.509Z,9.203692
2022-07-29T10:31:29.654Z,9.203673
2022-07-29T10:32:29.620Z,9.203884
2022-07-29T10:33:30.562Z,9.203897
2022-07-29T10:34:30.500Z,9.204303
2022-07-29T10:35:29.450Z,9.204077
2022-07-29T10:36:29.509Z,9.203766
2022-07-29T10:37:29.461Z,9.203604
2022-07-29T10:38:30.523Z,9.203596
2022-07-29T10:39:41.570Z,9.203566
2022-07-29T10:40:30.429Z,9.203668
2022-07-29T10:41:32.291Z,9.203641
2022-07-29T10:42:34.084Z,9.203789
2022-07-29T10:43:29.937Z,9.203748
2022-07-29T10:44:29.441Z,9.203826
2022-07-29T10:45:29.377Z,9.203954
2022-07-29T10:46:29.479Z,9.203699
2022-07-29T10:47:29.370Z,9.203739
2022-07-29T10:48:29.378Z,9.203712
2022-07-29T10:49:30.679Z,9.203615
2022-07-29T10:50:29.340Z,9.203499
2022-07-29T10:51:29.373Z,9.203533
2022-07-29T10:52:30.281Z,9.203485
2022-07-29T10:53:33.747Z,9.203670
2022-07-29T10:54:29.379Z,9.203518
2022-07-29T10:55:29.314Z,9.203687
2022-07-29T10:56:29.322Z,9.203764
2022-07-29T10:57:53.673Z,9.203648
2022-07-29T10:58:30.296Z,9.203623
2022-07-29T10:59:35.387Z,9.203747
2022-07-29T11:00:30.269Z,9.203721
2022-07-29T11:01:37.267Z,9.203674
2022-07-29T11:02:42.476Z,9.203647
2022-07-29T11:03:31.320Z,9.203521
2022-07-29T11:04:29.306Z,9.203567
2022-07-29T11:05:32.049Z,9.203565
2022-07-29T11:06:30.255Z,9.203573
2022-07-29T11:07:45.738Z,9.203781
2022-07-29T11:08:30.245Z,9.203613
2022-07-29T11:09:37.404Z,9.203681
2022-07-29T11:10:31.322Z,9.203828
2022-07-29T11:11:29.830Z,9.203679
2022-07-29T11:12:29.240Z,9.203547
2022-07-29T11:13:29.244Z,9.203831
2022-07-29T11:14:30.200Z,9.203663
2022-07-29T11:15:31.723Z,9.203587
2022-07-29T11:16:29.192Z,9.203753
2022-07-29T11:17:37.577Z,9.203699
2022-07-29T11:18:30.211Z,9.203743
2022-07-29T11:19:30.496Z,9.203679
2022-07-29T11:20:29.148Z,9.203809
2022-07-29T11:21:49.056Z,9.203724
2022-07-29T11:22:30.201Z,9.203692
2022-07-29T11:23:33.657Z,9.203791
2022-07-29T11:24:30.498Z,9.203750
2022-07-29T11:25:50.402Z,9.203751
2022-07-29T11:26:30.114Z,9.203711
2022-07-29T11:27:29.117Z,9.203777
2022-07-29T11:28:29.149Z,9.203624
2022-07-29T11:29:29.081Z,9.203485
2022-07-29T11:30:29.085Z,9.203674
2022-07-29T11:31:29.210Z,9.203666
2022-07-29T11:32:29.397Z,9.203708
2022-07-29T11:33:54.138Z,9.203755
2022-07-29T11:34:30.104Z,9.203791
2022-07-29T11:35:38.465Z,9.203721
2022-07-29T11:36:30.085Z,9.203696
2022-07-29T11:37:29.081Z,9.203720
2022-07-29T11:38:31.898Z,9.203492
2022-07-29T11:39:36.901Z,9.203486
2022-07-29T11:40:30.085Z,9.203510
2022-07-29T11:41:29.029Z,9.203675
2022-07-29T11:42:32.838Z,9.203854
2022-07-29T11:43:30.108Z,9.203659
2022-07-29T11:44:29.045Z,9.203625